createdAt,value
2018-05-05T00:01:09.608Z,1019.5
2018-05-05T00:06:10.941Z,1019.5
2018-05-05T00:11:21.653Z,1019.4
2018-05-05T00:16:21.389Z,1019.5
2018-05-05T00:21:21.343Z,1019.5
2018-05-05T00:26:21.514Z,1019.7
2018-05-05T00:31:21.556Z,1019.8
2018-05-05T00:36:21.473Z,1019.9
2018-05-05T00:41:21.384Z,1019.9
2018-05-05T00:46:21.446Z,1019.9
2018-05-05T00:51:21.662Z,1020
2018-05-05T00:56:33.662Z,1020
2018-05-05T01:01:33.460Z,1020
2018-05-05T01:06:33.513Z,1019.9
2018-05-05T01:11:33.521Z,1020
2018-05-05T01:16:33.608Z,1020
2018-05-05T01:21:33.364Z,1020
2018-05-05T01:26:33.509Z,1020.1
2018-05-05T01:31:33.531Z,1020
2018-05-05T01:36:33.745Z,1019.9
2018-05-05T01:41:46.281Z,1019.9
2018-05-05T01:46:45.988Z,1019.9
2018-05-05T01:51:46.240Z,1020
2018-05-05T01:56:46.192Z,1019.9
2018-05-05T02:01:46.208Z,1020
2018-05-05T02:06:46.009Z,1020
2018-05-05T02:11:46.158Z,1020.1
2018-05-05T02:16:49.687Z,1020
2018-05-05T02:21:49.605Z,1020
2018-05-05T02:27:02.041Z,1019.9
2018-05-05T02:32:01.905Z,1019.8
2018-05-05T02:37:01.893Z,1019.8
2018-05-05T02:42:01.761Z,1019.8
2018-05-05T02:47:01.981Z,1019.8
2018-05-05T02:52:01.920Z,1019.8
2018-05-05T02:57:01.953Z,1019.8
2018-05-05T03:02:02.517Z,1019.8
2018-05-05T03:07:02.435Z,1019.9
2018-05-05T03:12:14.976Z,1019.9
2018-05-05T03:17:14.867Z,1019.9
2018-05-05T03:22:14.721Z,1019.9
2018-05-05T03:27:14.948Z,1019.9
2018-05-05T03:32:14.735Z,1020
2018-05-05T03:37:14.911Z,1020
2018-05-05T03:42:14.950Z,1020.1
2018-05-05T03:47:14.734Z,1020.1
2018-05-05T03:52:14.927Z,1020.2
2018-05-05T03:57:27.454Z,1020.2
2018-05-05T04:02:26.890Z,1020.4
2018-05-05T04:07:27.007Z,1020.4
2018-05-05T04:12:26.933Z,1020.4
2018-05-05T04:17:26.782Z,1020.5
2018-05-05T04:22:27.457Z,1020.6
2018-05-05T04:27:27.636Z,1020.6
2018-05-05T04:32:29.969Z,1020.6
2018-05-05T04:37:29.879Z,1020.6
2018-05-05T04:42:42.284Z,1020.7
2018-05-05T04:47:42.034Z,1020.5
2018-05-05T04:52:41.939Z,1020.7
2018-05-05T04:57:41.985Z,1020.7
2018-05-05T05:02:41.993Z,1020.8
2018-05-05T05:07:42.043Z,1020.8
2018-05-05T05:12:42.269Z,1020.8
2018-05-05T05:17:42.853Z,1020.8
2018-05-05T05:22:42.530Z,1020.9
2018-05-05T05:27:55.053Z,1020.7
2018-05-05T05:32:54.919Z,1020.8
2018-05-05T05:37:54.779Z,1020.8
2018-05-05T05:42:54.973Z,1020.6
2018-05-05T05:47:55.040Z,1020.8
2018-05-05T05:52:54.819Z,1020.8
2018-05-05T05:57:54.976Z,1020.8
2018-05-05T06:02:54.768Z,1020.9
2018-05-05T06:07:54.803Z,1021
2018-05-05T06:12:54.869Z,1021.1
2018-05-05T06:17:54.749Z,1021.1
2018-05-05T06:22:54.941Z,1021.1
2018-05-05T06:27:56.287Z,1021.1
2018-05-05T06:32:56.109Z,1020.9
2018-05-05T06:38:11.583Z,1020.9
2018-05-05T06:43:08.358Z,1020.8
2018-05-05T06:48:08.689Z,1020.9
2018-05-05T06:53:08.377Z,1020.8
2018-05-05T06:58:08.417Z,1020.7
2018-05-05T07:03:08.398Z,1020.7
2018-05-05T07:08:08.385Z,1020.9
2018-05-05T07:13:08.395Z,1021
2018-05-05T07:18:08.345Z,1020.9
2018-05-05T07:23:19.352Z,1020.9
2018-05-05T07:28:19.061Z,1021
2018-05-05T07:33:19.054Z,1021
2018-05-05T07:38:19.049Z,1021.1
2018-05-05T07:43:21.888Z,1021
2018-05-05T07:48:19.097Z,1021.1
2018-05-05T07:53:19.241Z,1021.2
2018-05-05T07:58:22.100Z,1021.3
2018-05-05T08:03:21.823Z,1021.4
2018-05-05T08:08:34.393Z,1021.5
2018-05-05T08:13:34.094Z,1021.5
2018-05-05T08:18:34.144Z,1021.5
2018-05-05T08:23:34.227Z,1021.6
2018-05-05T08:28:34.373Z,1021.6
2018-05-05T08:33:34.356Z,1021.7
2018-05-05T08:38:34.383Z,1021.7
2018-05-05T08:43:38.342Z,1021.8
2018-05-05T08:48:38.058Z,1021.6
2018-05-05T08:53:48.315Z,1021.6
2018-05-05T08:58:48.031Z,1021.5
2018-05-05T09:03:48.037Z,1021.5
2018-05-05T09:08:48.052Z,1021.6
2018-05-05T09:13:48.020Z,1021.5
2018-05-05T09:18:48.321Z,1021.6
2018-05-05T09:23:48.064Z,1021.6
2018-05-05T09:28:49.196Z,1021.7
2018-05-05T09:33:48.802Z,1021.7
2018-05-05T09:39:01.742Z,1021.6
2018-05-05T09:44:01.408Z,1021.5
2018-05-05T09:49:01.434Z,1021.6
2018-05-05T09:54:01.417Z,1021.5
2018-05-05T09:59:01.481Z,1021.4
2018-05-05T10:04:02.170Z,1021.4
2018-05-05T10:09:01.830Z,1021.4
2018-05-05T10:14:01.456Z,1021.5
2018-05-05T10:19:01.672Z,1021.6
2018-05-05T10:24:13.601Z,1021.6
2018-05-05T10:29:13.343Z,1021.7
2018-05-05T10:34:13.332Z,1021.7
2018-05-05T10:39:13.787Z,1021.8
2018-05-05T10:44:13.546Z,1021.8
2018-05-05T10:49:13.546Z,1021.8
2018-05-05T10:54:13.579Z,1021.8
2018-05-05T10:59:13.572Z,1021.8
2018-05-05T11:04:13.609Z,1021.7
2018-05-05T11:09:13.730Z,1021.8
2018-05-05T11:14:13.573Z,1021.7
2018-05-05T11:19:13.565Z,1021.8
2018-05-05T11:24:13.758Z,1021.8
2018-05-05T11:29:13.922Z,1021.8
2018-05-05T11:34:25.710Z,1021.9
2018-05-05T11:39:25.503Z,1021.8
2018-05-05T11:44:25.413Z,1021.8
2018-05-05T11:49:25.483Z,1021.7
2018-05-05T11:54:28.435Z,1021.9
2018-05-05T11:59:25.509Z,1021.8
2018-05-05T12:04:25.426Z,1022
2018-05-05T12:09:28.297Z,1022
2018-05-05T12:14:27.987Z,1022.1
2018-05-05T12:19:40.449Z,1022.1
2018-05-05T12:24:40.140Z,1022.1
2018-05-05T12:29:40.402Z,1022.2
2018-05-05T12:34:40.192Z,1022.2
2018-05-05T12:39:40.370Z,1022.2
2018-05-05T12:44:40.658Z,1022.1
2018-05-05T12:49:40.425Z,1022.1
2018-05-05T12:54:40.710Z,1022.1
2018-05-05T12:59:40.606Z,1022.1
2018-05-05T13:04:40.419Z,1022.2
2018-05-05T13:09:40.543Z,1022
2018-05-05T13:14:40.455Z,1021.9
2018-05-05T13:19:41.138Z,1021.9
2018-05-05T13:24:40.859Z,1021.8
2018-05-05T13:29:53.024Z,1021.8
2018-05-05T13:34:52.748Z,1021.6
2018-05-05T13:39:54.396Z,1021.6
2018-05-05T13:44:54.167Z,1021.5
2018-05-05T13:49:52.764Z,1021.4
2018-05-05T13:54:59.269Z,1021.3
2018-05-05T13:59:59.258Z,1021.3
2018-05-05T14:04:59.377Z,1021.2
2018-05-05T14:09:59.380Z,1021.2
2018-05-05T14:15:11.551Z,1021
2018-05-05T14:20:11.154Z,1021
2018-05-05T14:25:11.467Z,1020.9
2018-05-05T14:30:11.204Z,1020.8
2018-05-05T14:35:11.223Z,1020.8
2018-05-05T14:40:15.001Z,1020.9
2018-05-05T14:45:17.645Z,1020.8
2018-05-05T14:50:14.723Z,1020.7
2018-05-05T14:55:14.695Z,1020.7
2018-05-05T15:00:14.675Z,1020.7
2018-05-05T15:05:15.130Z,1020.6
2018-05-05T15:10:14.695Z,1020.6
2018-05-05T15:15:16.516Z,1020.5
2018-05-05T15:20:16.228Z,1020.5
2018-05-05T15:25:28.210Z,1020.6
2018-05-05T15:30:27.932Z,1020.7
2018-05-05T15:35:27.957Z,1020.6
2018-05-05T15:40:28.149Z,1020.5
2018-05-05T15:45:27.936Z,1020.5
2018-05-05T15:50:27.934Z,1020.7
2018-05-05T15:55:27.982Z,1020.6
2018-05-05T16:00:27.945Z,1020.7
2018-05-05T16:05:27.954Z,1020.6
2018-05-05T16:10:39.935Z,1020.6
2018-05-05T16:15:39.626Z,1020.5
2018-05-05T16:20:39.660Z,1020.6
2018-05-05T16:25:39.659Z,1020.7
2018-05-05T16:30:39.644Z,1020.7
2018-05-05T16:35:39.637Z,1020.7
2018-05-05T16:40:39.653Z,1020.7
2018-05-05T16:45:42.131Z,1020.7
2018-05-05T16:50:41.841Z,1020.8
2018-05-05T16:55:53.881Z,1020.8
2018-05-05T17:00:53.591Z,1020.8
2018-05-05T17:05:53.617Z,1020.8
2018-05-05T17:10:55.075Z,1020.8
2018-05-05T17:15:53.627Z,1020.8
2018-05-05T17:20:53.607Z,1020.9
2018-05-05T17:25:53.680Z,1020.8
2018-05-05T17:30:53.864Z,1020.8
2018-05-05T17:35:53.880Z,1020.9
2018-05-05T17:41:05.698Z,1020.9
2018-05-05T17:46:05.409Z,1021
2018-05-05T17:51:05.407Z,1020.9
2018-05-05T17:56:05.439Z,1020.9
2018-05-05T18:01:05.428Z,1020.9
2018-05-05T18:06:06.815Z,1021
2018-05-05T18:11:05.584Z,1021
2018-05-05T18:16:07.092Z,1021
2018-05-05T18:21:06.850Z,1021.2
2018-05-05T18:26:20.000Z,1021.2
2018-05-05T18:31:19.666Z,1021.3
2018-05-05T18:36:19.680Z,1021.3
2018-05-05T18:41:19.949Z,1021.3
2018-05-05T18:46:20.672Z,1021.4
2018-05-05T18:51:19.684Z,1021.6
2018-05-05T18:56:19.854Z,1021.6
2018-05-05T19:01:19.686Z,1021.7
2018-05-05T19:06:19.859Z,1021.7
2018-05-05T19:11:19.782Z,1021.9
2018-05-05T19:16:20.089Z,1021.9
2018-05-05T19:21:19.703Z,1021.9
2018-05-05T19:26:19.690Z,1021.9
2018-05-05T19:31:19.704Z,1021.9
2018-05-05T19:36:33.455Z,1021.9
2018-05-05T19:41:33.754Z,1022
2018-05-05T19:46:33.320Z,1022
2018-05-05T19:51:33.180Z,1022.1
2018-05-05T19:56:33.214Z,1022.1
2018-05-05T20:01:33.447Z,1022.1
2018-05-05T20:06:33.174Z,1022.1
2018-05-05T20:11:33.190Z,1022.2
2018-05-05T20:16:33.308Z,1022.2
2018-05-05T20:21:37.230Z,1022.1
2018-05-05T20:26:37.174Z,1022.1
2018-05-05T20:31:36.939Z,1022.3
2018-05-05T20:36:36.996Z,1022.2
2018-05-05T20:41:37.035Z,1022.2
2018-05-05T20:46:36.972Z,1022.2
2018-05-05T20:51:37.039Z,1022.3
2018-05-05T20:56:37.025Z,1022.3
2018-05-05T21:01:37.045Z,1022.3
2018-05-05T21:06:48.635Z,1022.3
2018-05-05T21:11:48.360Z,1022.3
2018-05-05T21:16:48.355Z,1022.4
2018-05-05T21:21:48.492Z,1022.5
2018-05-05T21:26:48.360Z,1022.6
2018-05-05T21:31:48.364Z,1022.5
2018-05-05T21:36:48.424Z,1022.5
2018-05-05T21:41:48.379Z,1022.5
2018-05-05T21:46:48.629Z,1022.5
2018-05-05T21:52:00.316Z,1022.5
2018-05-05T21:56:59.961Z,1022.5
2018-05-05T22:01:59.979Z,1022.5
2018-05-05T22:06:59.872Z,1022.5
2018-05-05T22:12:00.176Z,1022.7
2018-05-05T22:17:00.106Z,1022.7
2018-05-05T22:22:00.126Z,1022.7
2018-05-05T22:27:00.670Z,1022.7
2018-05-05T22:32:00.213Z,1022.7
2018-05-05T22:37:12.611Z,1022.8
2018-05-05T22:42:12.257Z,1022.8
2018-05-05T22:47:12.315Z,1022.7
2018-05-05T22:52:12.332Z,1022.8
2018-05-05T22:57:12.275Z,1022.8
2018-05-05T23:02:12.260Z,1022.9
2018-05-05T23:07:12.274Z,1023
2018-05-05T23:12:12.333Z,1023
2018-05-05T23:17:12.274Z,1023
2018-05-05T23:22:23.897Z,1023
2018-05-05T23:27:23.462Z,1023.1
2018-05-05T23:32:23.479Z,1023.2
2018-05-05T23:37:23.479Z,1023.2
2018-05-05T23:42:23.522Z,1023.2
2018-05-05T23:47:24.983Z,1023.2
2018-05-05T23:52:26.010Z,1023.2
2018-05-05T23:57:24.882Z,1023.1
